sensor_id;sensor_type;location;lat;lon;timestamp;temperature;humidity
10411;DHT22;5251;52.112;8.606;2022-10-31T00:02:24;15.50;99.90
10411;DHT22;5251;52.112;8.606;2022-10-31T00:04:49;15.40;99.90
10411;DHT22;5251;52.112;8.606;2022-10-31T00:07:15;15.40;99.90
10411;DHT22;5251;52.112;8.606;2022-10-31T00:09:40;15.40;99.90
10411;DHT22;5251;52.112;8.606;2022-10-31T00:12:06;15.30;99.90
10411;DHT22;5251;52.112;8.606;2022-10-31T00:14:31;15.30;99.90
10411;DHT22;5251;52.112;8.606;2022-10-31T00:16:57;15.30;99.90
10411;DHT22;5251;52.112;8.606;2022-10-31T00:19:22;15.20;99.90
10411;DHT22;5251;52.112;8.606;2022-10-31T00:21:48;15.20;99.90
10411;DHT22;5251;52.112;8.606;2022-10-31T00:24:16;15.20;99.90
10411;DHT22;5251;52.112;8.606;2022-10-31T00:26:41;15.10;99.90
10411;DHT22;5251;52.112;8.606;2022-10-31T00:29:07;15.10;99.90
10411;DHT22;5251;52.112;8.606;2022-10-31T00:31:33;15.10;99.90
10411;DHT22;5251;52.112;8.606;2022-10-31T00:33:58;15.00;99.90
10411;DHT22;5251;52.112;8.606;2022-10-31T00:36:24;15.00;99.90
10411;DHT22;5251;52.112;8.606;2022-10-31T00:38:49;14.90;99.90
10411;DHT22;5251;52.112;8.606;2022-10-31T00:41:16;14.90;99.90
10411;DHT22;5251;52.112;8.606;2022-10-31T00:43:43;14.90;99.90
10411;DHT22;5251;52.112;8.606;2022-10-31T00:46:10;14.90;99.90
10411;DHT22;5251;52.112;8.606;2022-10-31T00:48:35;14.80;99.90
10411;DHT22;5251;52.112;8.606;2022-10-31T00:51:01;14.80;99.90
10411;DHT22;5251;52.112;8.606;2022-10-31T00:53:27;14.80;99.90
10411;DHT22;5251;52.112;8.606;2022-10-31T00:55:52;14.80;99.90
10411;DHT22;5251;52.112;8.606;2022-10-31T00:58:18;14.70;99.90
10411;DHT22;5251;52.112;8.606;2022-10-31T01:00:43;14.70;99.90
10411;DHT22;5251;52.112;8.606;2022-10-31T01:03:09;14.70;99.90
10411;DHT22;5251;52.112;8.606;2022-10-31T01:05:34;14.60;99.90
10411;DHT22;5251;52.112;8.606;2022-10-31T01:08:00;14.60;99.90
10411;DHT22;5251;52.112;8.606;2022-10-31T01:10:25;14.60;99.90
10411;DHT22;5251;52.112;8.606;2022-10-31T01:12:51;14.60;99.90
10411;DHT22;5251;52.112;8.606;2022-10-31T01:15:20;14.60;99.90
10411;DHT22;5251;52.112;8.606;2022-10-31T01:17:47;14.60;99.90
10411;DHT22;5251;52.112;8.606;2022-10-31T01:20:14;14.50;99.90
10411;DHT22;5251;52.112;8.606;2022-10-31T01:22:40;14.50;99.90
10411;DHT22;5251;52.112;8.606;2022-10-31T01:25:06;14.50;99.90
10411;DHT22;5251;52.112;8.606;2022-10-31T01:27:32;14.50;99.90
10411;DHT22;5251;52.112;8.606;2022-10-31T01:29:58;14.50;99.90
10411;DHT22;5251;52.112;8.606;2022-10-31T01:32:23;14.40;99.90
10411;DHT22;5251;52.112;8.606;2022-10-31T01:34:49;14.40;99.90
10411;DHT22;5251;52.112;8.606;2022-10-31T01:37:15;14.40;99.90
10411;DHT22;5251;52.112;8.606;2022-10-31T01:39:41;14.40;99.90
10411;DHT22;5251;52.112;8.606;2022-10-31T01:42:06;14.40;99.90
10411;DHT22;5251;52.112;8.606;2022-10-31T01:47:15;14.30;99.90
10411;DHT22;5251;52.112;8.606;2022-10-31T01:49:57;14.30;99.90
10411;DHT22;5251;52.112;8.606;2022-10-31T01:52:32;14.30;99.90
10411;DHT22;5251;52.112;8.606;2022-10-31T01:55:02;14.20;99.90
10411;DHT22;5251;52.112;8.606;2022-10-31T01:57:31;14.20;99.90
10411;DHT22;5251;52.112;8.606;2022-10-31T02:00:04;14.20;99.90
10411;DHT22;5251;52.112;8.606;2022-10-31T02:02:30;14.20;99.90
10411;DHT22;5251;52.112;8.606;2022-10-31T02:04:58;14.10;99.90
10411;DHT22;5251;52.112;8.606;2022-10-31T02:07:43;14.10;99.90
10411;DHT22;5251;52.112;8.606;2022-10-31T02:10:11;14.10;99.90
10411;DHT22;5251;52.112;8.606;2022-10-31T02:12:37;14.00;99.90
10411;DHT22;5251;52.112;8.606;2022-10-31T02:15:04;14.00;99.90
10411;DHT22;5251;52.112;8.606;2022-10-31T02:17:31;14.00;99.90
10411;DHT22;5251;52.112;8.606;2022-10-31T02:20:19;14.00;99.90
10411;DHT22;5251;52.112;8.606;2022-10-31T02:31:25;13.90;99.90
10411;DHT22;5251;52.112;8.606;2022-10-31T02:47:00;13.80;99.90
10411;DHT22;5251;52.112;8.606;2022-10-31T02:49:36;13.80;99.90
10411;DHT22;5251;52.112;8.606;2022-10-31T02:52:29;13.80;99.90
10411;DHT22;5251;52.112;8.606;2022-10-31T02:54:55;13.80;99.90
10411;DHT22;5251;52.112;8.606;2022-10-31T02:57:30;13.80;99.90
10411;DHT22;5251;52.112;8.606;2022-10-31T03:00:07;13.80;99.90
10411;DHT22;5251;52.112;8.606;2022-10-31T03:05:29;13.80;99.90
10411;DHT22;5251;52.112;8.606;2022-10-31T03:11:03;13.80;99.90
10411;DHT22;5251;52.112;8.606;2022-10-31T03:16:15;13.90;99.90
10411;DHT22;5251;52.112;8.606;2022-10-31T03:18:50;13.90;99.90
10411;DHT22;5251;52.112;8.606;2022-10-31T03:21:30;14.00;99.90
10411;DHT22;5251;52.112;8.606;2022-10-31T03:23:59;14.00;99.90
10411;DHT22;5251;52.112;8.606;2022-10-31T03:26:25;14.00;99.90
10411;DHT22;5251;52.112;8.606;2022-10-31T03:29:02;14.10;99.90
10411;DHT22;5251;52.112;8.606;2022-10-31T03:31:41;14.10;99.90
10411;DHT22;5251;52.112;8.606;2022-10-31T03:34:09;14.20;99.90
10411;DHT22;5251;52.112;8.606;2022-10-31T03:36:39;14.20;99.90
10411;DHT22;5251;52.112;8.606;2022-10-31T03:39:07;14.20;99.90
10411;DHT22;5251;52.112;8.606;2022-10-31T03:41:37;14.20;99.90
10411;DHT22;5251;52.112;8.606;2022-10-31T03:44:09;14.20;99.90
10411;DHT22;5251;52.112;8.606;2022-10-31T03:46:36;14.20;99.90
10411;DHT22;5251;52.112;8.606;2022-10-31T03:49:02;14.20;99.90
10411;DHT22;5251;52.112;8.606;2022-10-31T03:59:41;14.10;99.90
10411;DHT22;5251;52.112;8.606;2022-10-31T04:02:11;14.00;99.90
10411;DHT22;5251;52.112;8.606;2022-10-31T04:04:39;14.00;99.90
10411;DHT22;5251;52.112;8.606;2022-10-31T04:07:06;13.90;99.90
10411;DHT22;5251;52.112;8.606;2022-10-31T04:09:35;13.90;99.90
10411;DHT22;5251;52.112;8.606;2022-10-31T04:12:03;13.90;99.90
10411;DHT22;5251;52.112;8.606;2022-10-31T04:14:32;13.80;99.90
10411;DHT22;5251;52.112;8.606;2022-10-31T04:17:00;13.80;99.90
10411;DHT22;5251;52.112;8.606;2022-10-31T04:19:26;13.80;99.90
10411;DHT22;5251;52.112;8.606;2022-10-31T04:21:52;13.70;99.90
10411;DHT22;5251;52.112;8.606;2022-10-31T04:24:17;13.70;99.90
10411;DHT22;5251;52.112;8.606;2022-10-31T04:26:43;13.70;99.90
10411;DHT22;5251;52.112;8.606;2022-10-31T04:29:09;13.60;99.90
10411;DHT22;5251;52.112;8.606;2022-10-31T04:31:34;13.60;99.90
10411;DHT22;5251;52.112;8.606;2022-10-31T04:34:00;13.60;99.90
10411;DHT22;5251;52.112;8.606;2022-10-31T04:36:25;13.60;99.90
10411;DHT22;5251;52.112;8.606;2022-10-31T04:38:51;13.50;99.90
10411;DHT22;5251;52.112;8.606;2022-10-31T04:41:16;13.50;99.90
10411;DHT22;5251;52.112;8.606;2022-10-31T04:43:42;13.50;99.90
10411;DHT22;5251;52.112;8.606;2022-10-31T04:46:07;13.50;99.90
10411;DHT22;5251;52.112;8.606;2022-10-31T04:48:33;13.50;99.90
10411;DHT22;5251;52.112;8.606;2022-10-31T04:51:00;13.40;99.90
10411;DHT22;5251;52.112;8.606;2022-10-31T04:53:26;13.40;99.90
10411;DHT22;5251;52.112;8.606;2022-10-31T04:55:51;13.40;99.90
10411;DHT22;5251;52.112;8.606;2022-10-31T04:58:17;13.40;99.90
10411;DHT22;5251;52.112;8.606;2022-10-31T05:00:42;13.30;99.90
10411;DHT22;5251;52.112;8.606;2022-10-31T05:03:08;13.30;99.90
10411;DHT22;5251;52.112;8.606;2022-10-31T05:05:34;13.30;99.90
10411;DHT22;5251;52.112;8.606;2022-10-31T05:07:59;13.30;99.90
10411;DHT22;5251;52.112;8.606;2022-10-31T05:10:27;13.20;99.90
10411;DHT22;5251;52.112;8.606;2022-10-31T05:12:55;13.20;99.90
10411;DHT22;5251;52.112;8.606;2022-10-31T05:15:23;13.10;99.90
10411;DHT22;5251;52.112;8.606;2022-10-31T05:17:49;13.10;99.90
10411;DHT22;5251;52.112;8.606;2022-10-31T05:20:16;13.10;99.90
10411;DHT22;5251;52.112;8.606;2022-10-31T05:22:43;13.10;99.90
10411;DHT22;5251;52.112;8.606;2022-10-31T05:25:09;13.00;99.90
10411;DHT22;5251;52.112;8.606;2022-10-31T05:27:41;13.00;99.90
10411;DHT22;5251;52.112;8.606;2022-10-31T05:30:08;13.00;99.90
10411;DHT22;5251;52.112;8.606;2022-10-31T05:32:41;13.00;99.90
10411;DHT22;5251;52.112;8.606;2022-10-31T05:35:08;12.90;99.90
10411;DHT22;5251;52.112;8.606;2022-10-31T05:37:38;12.90;99.90
10411;DHT22;5251;52.112;8.606;2022-10-31T05:40:05;12.90;99.90
10411;DHT22;5251;52.112;8.606;2022-10-31T05:42:31;12.90;99.90
10411;DHT22;5251;52.112;8.606;2022-10-31T05:44:57;12.90;99.90
10411;DHT22;5251;52.112;8.606;2022-10-31T05:47:22;12.80;99.90
10411;DHT22;5251;52.112;8.606;2022-10-31T05:49:48;12.80;99.90
10411;DHT22;5251;52.112;8.606;2022-10-31T05:52:14;12.80;99.90
10411;DHT22;5251;52.112;8.606;2022-10-31T05:54:40;12.80;99.90
10411;DHT22;5251;52.112;8.606;2022-10-31T05:57:05;12.70;99.90
10411;DHT22;5251;52.112;8.606;2022-10-31T05:59:31;12.70;99.90
10411;DHT22;5251;52.112;8.606;2022-10-31T06:01:56;12.70;99.90
10411;DHT22;5251;52.112;8.606;2022-10-31T06:04:22;12.70;99.90
10411;DHT22;5251;52.112;8.606;2022-10-31T06:06:47;12.70;99.90
10411;DHT22;5251;52.112;8.606;2022-10-31T06:09:13;12.60;99.90
10411;DHT22;5251;52.112;8.606;2022-10-31T06:11:39;12.60;99.90
10411;DHT22;5251;52.112;8.606;2022-10-31T06:14:05;12.50;99.90
10411;DHT22;5251;52.112;8.606;2022-10-31T06:16:30;12.50;99.90
10411;DHT22;5251;52.112;8.606;2022-10-31T06:18:56;12.50;99.90
10411;DHT22;5251;52.112;8.606;2022-10-31T06:21:22;12.50;99.90
10411;DHT22;5251;52.112;8.606;2022-10-31T06:23:47;12.50;99.90
10411;DHT22;5251;52.112;8.606;2022-10-31T06:26:13;12.50;99.90
10411;DHT22;5251;52.112;8.606;2022-10-31T06:28:38;12.40;99.90
10411;DHT22;5251;52.112;8.606;2022-10-31T06:31:04;12.40;99.90
10411;DHT22;5251;52.112;8.606;2022-10-31T06:33:30;12.40;99.90
10411;DHT22;5251;52.112;8.606;2022-10-31T06:35:55;12.40;99.90
10411;DHT22;5251;52.112;8.606;2022-10-31T06:38:21;12.40;99.90
10411;DHT22;5251;52.112;8.606;2022-10-31T06:40:47;12.40;99.90
10411;DHT22;5251;52.112;8.606;2022-10-31T06:43:12;12.40;99.90
10411;DHT22;5251;52.112;8.606;2022-10-31T06:45:40;12.40;99.90
10411;DHT22;5251;52.112;8.606;2022-10-31T06:48:05;12.40;99.90
10411;DHT22;5251;52.112;8.606;2022-10-31T06:50:31;12.40;99.90
10411;DHT22;5251;52.112;8.606;2022-10-31T06:52:58;12.40;99.90
10411;DHT22;5251;52.112;8.606;2022-10-31T06:55:25;12.40;99.90
10411;DHT22;5251;52.112;8.606;2022-10-31T06:57:55;12.40;99.90
10411;DHT22;5251;52.112;8.606;2022-10-31T07:00:23;12.40;99.90
10411;DHT22;5251;52.112;8.606;2022-10-31T07:03:17;12.50;99.90
10411;DHT22;5251;52.112;8.606;2022-10-31T07:05:43;12.50;99.90
10411;DHT22;5251;52.112;8.606;2022-10-31T07:08:11;12.60;99.90
10411;DHT22;5251;52.112;8.606;2022-10-31T07:10:38;12.60;99.90
10411;DHT22;5251;52.112;8.606;2022-10-31T07:13:06;12.70;99.90
10411;DHT22;5251;52.112;8.606;2022-10-31T07:15:35;12.70;99.90
10411;DHT22;5251;52.112;8.606;2022-10-31T07:18:02;12.80;99.90
10411;DHT22;5251;52.112;8.606;2022-10-31T07:20:28;12.80;99.90
10411;DHT22;5251;52.112;8.606;2022-10-31T07:22:54;12.80;99.90
10411;DHT22;5251;52.112;8.606;2022-10-31T07:25:20;12.90;99.90
10411;DHT22;5251;52.112;8.606;2022-10-31T07:27:46;13.00;99.90
10411;DHT22;5251;52.112;8.606;2022-10-31T07:30:12;13.10;99.90
10411;DHT22;5251;52.112;8.606;2022-10-31T07:32:40;13.10;99.90
10411;DHT22;5251;52.112;8.606;2022-10-31T07:35:07;13.20;99.90
10411;DHT22;5251;52.112;8.606;2022-10-31T07:37:33;13.20;99.90
10411;DHT22;5251;52.112;8.606;2022-10-31T07:39:59;13.30;99.90
10411;DHT22;5251;52.112;8.606;2022-10-31T07:42:24;13.40;99.90
10411;DHT22;5251;52.112;8.606;2022-10-31T07:44:50;13.40;99.90
10411;DHT22;5251;52.112;8.606;2022-10-31T07:47:16;13.50;99.90
10411;DHT22;5251;52.112;8.606;2022-10-31T07:49:41;13.60;99.90
10411;DHT22;5251;52.112;8.606;2022-10-31T07:52:07;13.70;99.90
10411;DHT22;5251;52.112;8.606;2022-10-31T07:54:32;13.80;99.90
10411;DHT22;5251;52.112;8.606;2022-10-31T07:56:58;13.90;99.90
10411;DHT22;5251;52.112;8.606;2022-10-31T07:59:23;14.00;99.90
10411;DHT22;5251;52.112;8.606;2022-10-31T08:01:51;14.10;99.90
10411;DHT22;5251;52.112;8.606;2022-10-31T08:04:16;14.30;99.90
10411;DHT22;5251;52.112;8.606;2022-10-31T08:06:42;14.40;99.90
10411;DHT22;5251;52.112;8.606;2022-10-31T08:09:07;14.60;99.90
10411;DHT22;5251;52.112;8.606;2022-10-31T08:11:33;14.70;99.90
10411;DHT22;5251;52.112;8.606;2022-10-31T08:13:58;14.80;99.90
10411;DHT22;5251;52.112;8.606;2022-10-31T08:16:24;15.00;99.90
10411;DHT22;5251;52.112;8.606;2022-10-31T08:18:50;15.10;99.90
10411;DHT22;5251;52.112;8.606;2022-10-31T08:21:15;15.20;99.90
10411;DHT22;5251;52.112;8.606;2022-10-31T08:23:41;15.30;99.90
10411;DHT22;5251;52.112;8.606;2022-10-31T08:26:06;15.40;99.90
10411;DHT22;5251;52.112;8.606;2022-10-31T08:28:32;15.60;99.90
10411;DHT22;5251;52.112;8.606;2022-10-31T08:30:58;15.70;99.90
10411;DHT22;5251;52.112;8.606;2022-10-31T08:33:24;15.80;99.90
10411;DHT22;5251;52.112;8.606;2022-10-31T08:35:49;15.90;99.90
10411;DHT22;5251;52.112;8.606;2022-10-31T08:38:16;16.00;99.90
10411;DHT22;5251;52.112;8.606;2022-10-31T08:40:41;16.10;99.90
10411;DHT22;5251;52.112;8.606;2022-10-31T08:43:12;16.20;99.90
10411;DHT22;5251;52.112;8.606;2022-10-31T08:45:38;16.20;99.90
10411;DHT22;5251;52.112;8.606;2022-10-31T08:48:06;16.30;99.90
10411;DHT22;5251;52.112;8.606;2022-10-31T08:50:34;16.40;99.90
10411;DHT22;5251;52.112;8.606;2022-10-31T08:53:19;16.40;99.90
10411;DHT22;5251;52.112;8.606;2022-10-31T08:55:46;16.50;99.90
10411;DHT22;5251;52.112;8.606;2022-10-31T08:58:15;16.50;99.90
10411;DHT22;5251;52.112;8.606;2022-10-31T09:00:41;16.50;99.90
10411;DHT22;5251;52.112;8.606;2022-10-31T09:03:11;16.60;99.90
10411;DHT22;5251;52.112;8.606;2022-10-31T09:05:37;16.60;99.90
10411;DHT22;5251;52.112;8.606;2022-10-31T09:08:04;16.60;99.90
10411;DHT22;5251;52.112;8.606;2022-10-31T09:10:31;16.60;99.90
10411;DHT22;5251;52.112;8.606;2022-10-31T09:13:02;16.70;99.90
10411;DHT22;5251;52.112;8.606;2022-10-31T09:15:32;16.70;99.90
10411;DHT22;5251;52.112;8.606;2022-10-31T09:17:58;16.70;99.90
10411;DHT22;5251;52.112;8.606;2022-10-31T09:20:24;16.70;99.90
10411;DHT22;5251;52.112;8.606;2022-10-31T09:23:04;16.70;99.90
10411;DHT22;5251;52.112;8.606;2022-10-31T09:25:30;16.70;99.90
10411;DHT22;5251;52.112;8.606;2022-10-31T09:27:58;16.80;99.90
10411;DHT22;5251;52.112;8.606;2022-10-31T09:30:25;16.80;99.90
10411;DHT22;5251;52.112;8.606;2022-10-31T09:33:02;16.80;99.90
10411;DHT22;5251;52.112;8.606;2022-10-31T09:35:28;16.80;99.90
10411;DHT22;5251;52.112;8.606;2022-10-31T09:37:58;16.90;99.90
10411;DHT22;5251;52.112;8.606;2022-10-31T09:40:35;16.90;99.90
10411;DHT22;5251;52.112;8.606;2022-10-31T09:51:57;17.00;99.90
10411;DHT22;5251;52.112;8.606;2022-10-31T09:54:45;17.00;99.90
10411;DHT22;5251;52.112;8.606;2022-10-31T09:57:16;17.00;99.90
10411;DHT22;5251;52.112;8.606;2022-10-31T09:59:44;17.10;99.90
10411;DHT22;5251;52.112;8.606;2022-10-31T10:05:01;17.10;99.90
10411;DHT22;5251;52.112;8.606;2022-10-31T10:10:48;17.20;99.90
10411;DHT22;5251;52.112;8.606;2022-10-31T10:32:40;17.60;99.90
10411;DHT22;5251;52.112;8.606;2022-10-31T10:35:25;17.60;99.90
10411;DHT22;5251;52.112;8.606;2022-10-31T10:37:57;17.70;99.90
10411;DHT22;5251;52.112;8.606;2022-10-31T10:40:26;17.80;99.90
10411;DHT22;5251;52.112;8.606;2022-10-31T10:43:12;17.80;99.90
10411;DHT22;5251;52.112;8.606;2022-10-31T10:51:45;18.00;99.90
10411;DHT22;5251;52.112;8.606;2022-10-31T10:59:30;18.30;99.90
10411;DHT22;5251;52.112;8.606;2022-10-31T11:01:58;18.50;99.90
10411;DHT22;5251;52.112;8.606;2022-10-31T11:04:31;18.50;99.90
10411;DHT22;5251;52.112;8.606;2022-10-31T11:07:06;18.60;99.90
10411;DHT22;5251;52.112;8.606;2022-10-31T11:09:33;18.70;99.90
10411;DHT22;5251;52.112;8.606;2022-10-31T11:12:05;18.90;99.90
10411;DHT22;5251;52.112;8.606;2022-10-31T11:14:43;19.00;99.90
10411;DHT22;5251;52.112;8.606;2022-10-31T11:17:17;19.10;99.90
10411;DHT22;5251;52.112;8.606;2022-10-31T11:19:44;19.20;99.90
10411;DHT22;5251;52.112;8.606;2022-10-31T11:22:16;19.30;99.90
10411;DHT22;5251;52.112;8.606;2022-10-31T11:24:43;19.40;99.90
10411;DHT22;5251;52.112;8.606;2022-10-31T11:27:15;19.50;99.90
10411;DHT22;5251;52.112;8.606;2022-10-31T11:29:42;19.60;99.90
10411;DHT22;5251;52.112;8.606;2022-10-31T11:32:24;19.70;99.90
10411;DHT22;5251;52.112;8.606;2022-10-31T11:34:54;19.80;99.90
10411;DHT22;5251;52.112;8.606;2022-10-31T11:37:25;19.90;99.90
10411;DHT22;5251;52.112;8.606;2022-10-31T11:40:05;20.10;99.90
10411;DHT22;5251;52.112;8.606;2022-10-31T11:42:41;20.20;99.90
10411;DHT22;5251;52.112;8.606;2022-10-31T11:45:31;20.30;99.90
10411;DHT22;5251;52.112;8.606;2022-10-31T11:47:58;20.40;99.90
10411;DHT22;5251;52.112;8.606;2022-10-31T11:50:38;20.40;99.90
10411;DHT22;5251;52.112;8.606;2022-10-31T11:53:15;20.50;99.90
10411;DHT22;5251;52.112;8.606;2022-10-31T11:55:41;20.60;99.90
10411;DHT22;5251;52.112;8.606;2022-10-31T11:58:24;20.60;99.90
10411;DHT22;5251;52.112;8.606;2022-10-31T12:00:53;20.70;99.90
10411;DHT22;5251;52.112;8.606;2022-10-31T12:05:53;20.70;99.90
10411;DHT22;5251;52.112;8.606;2022-10-31T12:08:21;20.70;99.90
10411;DHT22;5251;52.112;8.606;2022-10-31T12:16:49;20.70;99.90
10411;DHT22;5251;52.112;8.606;2022-10-31T12:27:51;20.60;99.90
10411;DHT22;5251;52.112;8.606;2022-10-31T12:30:24;20.60;99.90
10411;DHT22;5251;52.112;8.606;2022-10-31T12:43:46;20.80;99.90
10411;DHT22;5251;52.112;8.606;2022-10-31T12:58:01;21.00;99.90
10411;DHT22;5251;52.112;8.606;2022-10-31T13:00:29;21.00;99.90
10411;DHT22;5251;52.112;8.606;2022-10-31T13:03:24;21.00;99.90
10411;DHT22;5251;52.112;8.606;2022-10-31T13:06:02;21.00;99.90
10411;DHT22;5251;52.112;8.606;2022-10-31T13:08:48;21.00;99.90
10411;DHT22;5251;52.112;8.606;2022-10-31T13:11:45;21.00;99.90
10411;DHT22;5251;52.112;8.606;2022-10-31T13:15:12;20.90;99.90
10411;DHT22;5251;52.112;8.606;2022-10-31T13:17:43;20.90;99.90
10411;DHT22;5251;52.112;8.606;2022-10-31T13:23:03;20.90;99.90
10411;DHT22;5251;52.112;8.606;2022-10-31T13:25:33;20.90;99.90
10411;DHT22;5251;52.112;8.606;2022-10-31T13:28:05;20.80;99.90
10411;DHT22;5251;52.112;8.606;2022-10-31T13:30:38;20.80;99.90
10411;DHT22;5251;52.112;8.606;2022-10-31T13:33:19;20.80;99.90
10411;DHT22;5251;52.112;8.606;2022-10-31T13:46:25;21.10;99.90
10411;DHT22;5251;52.112;8.606;2022-10-31T13:48:51;21.10;99.90
10411;DHT22;5251;52.112;8.606;2022-10-31T13:51:25;21.20;99.90
10411;DHT22;5251;52.112;8.606;2022-10-31T13:53:59;21.20;99.90
10411;DHT22;5251;52.112;8.606;2022-10-31T13:56:29;21.20;99.90
10411;DHT22;5251;52.112;8.606;2022-10-31T13:58:59;21.20;99.90
10411;DHT22;5251;52.112;8.606;2022-10-31T14:01:26;21.30;99.90
10411;DHT22;5251;52.112;8.606;2022-10-31T14:04:03;21.20;99.90
10411;DHT22;5251;52.112;8.606;2022-10-31T14:09:03;21.20;99.90
10411;DHT22;5251;52.112;8.606;2022-10-31T14:11:29;21.20;99.90
10411;DHT22;5251;52.112;8.606;2022-10-31T14:13:57;21.20;99.90
10411;DHT22;5251;52.112;8.606;2022-10-31T14:19:03;21.10;99.90
10411;DHT22;5251;52.112;8.606;2022-10-31T14:21:44;21.10;99.90
10411;DHT22;5251;52.112;8.606;2022-10-31T14:26:54;21.00;99.90
10411;DHT22;5251;52.112;8.606;2022-10-31T14:29:26;20.90;99.90
10411;DHT22;5251;52.112;8.606;2022-10-31T14:31:55;20.90;99.90
10411;DHT22;5251;52.112;8.606;2022-10-31T14:34:31;20.80;99.90
10411;DHT22;5251;52.112;8.606;2022-10-31T14:45:23;20.70;99.90
10411;DHT22;5251;52.112;8.606;2022-10-31T14:48:18;20.60;99.90
10411;DHT22;5251;52.112;8.606;2022-10-31T14:50:49;20.60;99.90
10411;DHT22;5251;52.112;8.606;2022-10-31T14:55:53;20.40;99.90
10411;DHT22;5251;52.112;8.606;2022-10-31T14:58:42;20.40;99.90
10411;DHT22;5251;52.112;8.606;2022-10-31T15:01:27;20.40;99.90
10411;DHT22;5251;52.112;8.606;2022-10-31T15:04:37;20.40;99.90
10411;DHT22;5251;52.112;8.606;2022-10-31T15:06:46;20.30;99.90
10411;DHT22;5251;52.112;8.606;2022-10-31T15:09:23;20.30;99.90
10411;DHT22;5251;52.112;8.606;2022-10-31T15:11:49;20.20;99.90
10411;DHT22;5251;52.112;8.606;2022-10-31T15:14:41;20.20;99.90
10411;DHT22;5251;52.112;8.606;2022-10-31T15:17:11;20.20;99.90
10411;DHT22;5251;52.112;8.606;2022-10-31T15:19:37;20.10;99.90
10411;DHT22;5251;52.112;8.606;2022-10-31T15:22:03;20.10;99.90
10411;DHT22;5251;52.112;8.606;2022-10-31T15:24:38;20.20;99.90
10411;DHT22;5251;52.112;8.606;2022-10-31T15:27:04;20.00;99.90
10411;DHT22;5251;52.112;8.606;2022-10-31T15:29:30;20.00;99.90
10411;DHT22;5251;52.112;8.606;2022-10-31T15:32:09;20.00;99.90
10411;DHT22;5251;52.112;8.606;2022-10-31T15:34:44;19.90;99.90
10411;DHT22;5251;52.112;8.606;2022-10-31T15:37:18;19.90;99.90
10411;DHT22;5251;52.112;8.606;2022-10-31T15:39:44;19.80;99.90
10411;DHT22;5251;52.112;8.606;2022-10-31T15:42:26;19.80;99.90
10411;DHT22;5251;52.112;8.606;2022-10-31T15:45:04;19.70;99.90
10411;DHT22;5251;52.112;8.606;2022-10-31T15:47:31;19.70;99.90
10411;DHT22;5251;52.112;8.606;2022-10-31T15:49:59;19.70;99.90
10411;DHT22;5251;52.112;8.606;2022-10-31T15:52:41;19.60;99.90
10411;DHT22;5251;52.112;8.606;2022-10-31T15:57:45;19.50;99.90
10411;DHT22;5251;52.112;8.606;2022-10-31T16:00:31;19.50;99.90
10411;DHT22;5251;52.112;8.606;2022-10-31T16:05:44;19.40;99.90
10411;DHT22;5251;52.112;8.606;2022-10-31T16:13:38;19.30;99.90
10411;DHT22;5251;52.112;8.606;2022-10-31T16:16:13;19.30;99.90
10411;DHT22;5251;52.112;8.606;2022-10-31T16:18:40;19.30;99.90
10411;DHT22;5251;52.112;8.606;2022-10-31T16:21:08;19.20;99.90
10411;DHT22;5251;52.112;8.606;2022-10-31T16:23:34;19.20;99.90
10411;DHT22;5251;52.112;8.606;2022-10-31T16:26:06;19.20;99.90
10411;DHT22;5251;52.112;8.606;2022-10-31T16:28:32;19.20;99.90
10411;DHT22;5251;52.112;8.606;2022-10-31T16:30:59;19.10;99.90
10411;DHT22;5251;52.112;8.606;2022-10-31T16:33:31;19.10;99.90
10411;DHT22;5251;52.112;8.606;2022-10-31T16:38:55;19.00;99.90
10411;DHT22;5251;52.112;8.606;2022-10-31T16:41:22;18.90;99.90
10411;DHT22;5251;52.112;8.606;2022-10-31T16:43:48;18.90;99.90
10411;DHT22;5251;52.112;8.606;2022-10-31T16:46:21;18.90;99.90
10411;DHT22;5251;52.112;8.606;2022-10-31T16:48:47;18.90;99.90
10411;DHT22;5251;52.112;8.606;2022-10-31T16:51:13;18.80;99.90
10411;DHT22;5251;52.112;8.606;2022-10-31T16:53:38;18.80;99.90
10411;DHT22;5251;52.112;8.606;2022-10-31T16:56:04;18.70;99.90
10411;DHT22;5251;52.112;8.606;2022-10-31T16:58:34;18.70;99.90
10411;DHT22;5251;52.112;8.606;2022-10-31T17:01:02;18.70;99.90
10411;DHT22;5251;52.112;8.606;2022-10-31T17:03:29;18.70;99.90
10411;DHT22;5251;52.112;8.606;2022-10-31T17:05:55;18.60;99.90
10411;DHT22;5251;52.112;8.606;2022-10-31T17:08:22;18.70;99.90
10411;DHT22;5251;52.112;8.606;2022-10-31T17:10:52;18.60;99.90
10411;DHT22;5251;52.112;8.606;2022-10-31T17:13:27;18.60;99.90
10411;DHT22;5251;52.112;8.606;2022-10-31T17:15:59;18.60;99.90
10411;DHT22;5251;52.112;8.606;2022-10-31T17:18:25;18.50;99.90
10411;DHT22;5251;52.112;8.606;2022-10-31T17:20:55;18.60;99.90
10411;DHT22;5251;52.112;8.606;2022-10-31T17:23:22;18.50;99.90
10411;DHT22;5251;52.112;8.606;2022-10-31T17:25:47;18.50;99.90
10411;DHT22;5251;52.112;8.606;2022-10-31T17:28:13;18.50;99.90
10411;DHT22;5251;52.112;8.606;2022-10-31T17:30:42;18.50;99.90
10411;DHT22;5251;52.112;8.606;2022-10-31T17:33:12;18.40;99.90
10411;DHT22;5251;52.112;8.606;2022-10-31T17:35:40;18.50;99.90
10411;DHT22;5251;52.112;8.606;2022-10-31T17:38:05;18.50;99.90
10411;DHT22;5251;52.112;8.606;2022-10-31T17:40:31;18.40;99.90
10411;DHT22;5251;52.112;8.606;2022-10-31T17:42:57;18.40;99.90
10411;DHT22;5251;52.112;8.606;2022-10-31T17:45:24;18.40;99.90
10411;DHT22;5251;52.112;8.606;2022-10-31T17:47:51;18.40;99.90
10411;DHT22;5251;52.112;8.606;2022-10-31T17:50:20;18.40;99.90
10411;DHT22;5251;52.112;8.606;2022-10-31T17:52:46;18.40;99.90
10411;DHT22;5251;52.112;8.606;2022-10-31T17:55:12;18.30;99.90
10411;DHT22;5251;52.112;8.606;2022-10-31T17:57:38;18.30;99.90
10411;DHT22;5251;52.112;8.606;2022-10-31T18:00:05;18.30;99.90
10411;DHT22;5251;52.112;8.606;2022-10-31T18:02:32;18.30;99.90
10411;DHT22;5251;52.112;8.606;2022-10-31T18:04:57;18.30;99.90
10411;DHT22;5251;52.112;8.606;2022-10-31T18:07:23;18.30;99.90
10411;DHT22;5251;52.112;8.606;2022-10-31T18:09:49;18.20;99.90
10411;DHT22;5251;52.112;8.606;2022-10-31T18:12:15;18.20;99.90
10411;DHT22;5251;52.112;8.606;2022-10-31T18:14:41;18.10;99.90
10411;DHT22;5251;52.112;8.606;2022-10-31T18:17:06;18.10;99.90
10411;DHT22;5251;52.112;8.606;2022-10-31T18:19:33;18.10;99.90
10411;DHT22;5251;52.112;8.606;2022-10-31T18:21:59;18.00;99.90
10411;DHT22;5251;52.112;8.606;2022-10-31T18:24:24;17.90;99.90
10411;DHT22;5251;52.112;8.606;2022-10-31T18:26:50;17.90;99.90
10411;DHT22;5251;52.112;8.606;2022-10-31T18:29:16;17.90;99.90
10411;DHT22;5251;52.112;8.606;2022-10-31T18:31:42;17.80;99.90
10411;DHT22;5251;52.112;8.606;2022-10-31T18:34:07;17.80;99.90
10411;DHT22;5251;52.112;8.606;2022-10-31T18:36:33;17.70;99.90
10411;DHT22;5251;52.112;8.606;2022-10-31T18:38:59;17.70;99.90
10411;DHT22;5251;52.112;8.606;2022-10-31T18:41:25;17.60;99.90
10411;DHT22;5251;52.112;8.606;2022-10-31T18:43:50;17.60;99.90
10411;DHT22;5251;52.112;8.606;2022-10-31T18:46:18;17.50;99.90
10411;DHT22;5251;52.112;8.606;2022-10-31T18:48:44;17.50;99.90
10411;DHT22;5251;52.112;8.606;2022-10-31T18:51:12;17.50;99.90